createdAt,value
2018-08-07T00:04:12.676Z,26.80
2018-08-07T00:09:16.815Z,26.70
2018-08-07T00:14:21.010Z,27.00
2018-08-07T00:19:25.346Z,27.40
2018-08-07T00:24:29.646Z,27.50
2018-08-07T00:29:33.817Z,27.50
2018-08-07T00:34:37.956Z,27.40
2018-08-07T00:39:42.074Z,27.40
2018-08-07T00:44:46.229Z,27.30
2018-08-07T00:49:50.485Z,27.30
2018-08-07T00:54:54.697Z,27.30
2018-08-07T00:59:58.826Z,27.20
2018-08-07T01:05:02.966Z,27.10
2018-08-07T01:10:09.174Z,27.00
2018-08-07T01:20:22.618Z,26.90
2018-08-07T01:25:41.935Z,26.90
2018-08-07T01:30:46.132Z,26.80
2018-08-07T01:35:50.181Z,26.80
2018-08-07T01:40:54.606Z,26.70
2018-08-07T01:45:58.697Z,26.60
2018-08-07T01:51:02.872Z,26.50
2018-08-07T01:56:06.989Z,26.40
2018-08-07T02:01:11.112Z,26.40
2018-08-07T02:06:15.392Z,25.90
2018-08-07T02:11:19.474Z,24.30
2018-08-07T02:16:23.568Z,24.50
2018-08-07T02:21:27.840Z,24.10
2018-08-07T02:26:31.974Z,23.60
2018-08-07T02:31:36.066Z,23.40
2018-08-07T02:36:40.133Z,23.00
2018-08-07T02:41:44.271Z,23.20
2018-08-07T02:46:48.510Z,24.00
2018-08-07T02:51:52.586Z,24.80
2018-08-07T03:02:00.501Z,24.60
2018-08-07T03:07:04.881Z,23.70
2018-08-07T03:12:09.116Z,24.10
2018-08-07T03:17:13.240Z,24.50
2018-08-07T03:22:17.472Z,24.80
2018-08-07T03:27:21.641Z,24.70
2018-08-07T03:32:25.809Z,24.90
2018-08-07T03:37:41.787Z,25.00
2018-08-07T03:42:46.109Z,25.20
2018-08-07T03:47:50.186Z,24.60
2018-08-07T03:52:54.282Z,24.60
2018-08-07T03:57:59.199Z,24.80
2018-08-07T04:03:03.302Z,24.80
2018-08-07T04:08:07.485Z,24.70
2018-08-07T04:13:11.639Z,24.70
2018-08-07T04:18:15.779Z,24.60
2018-08-07T04:23:20.621Z,24.30
2018-08-07T04:28:24.720Z,23.80
2018-08-07T04:33:28.873Z,23.50
2018-08-07T04:38:33.287Z,23.60
2018-08-07T04:43:37.417Z,23.20
2018-08-07T04:48:41.546Z,23.40
2018-08-07T04:53:45.728Z,23.30
2018-08-07T04:58:49.897Z,23.60
2018-08-07T05:03:54.593Z,23.10
2018-08-07T05:09:01.242Z,23.40
2018-08-07T05:14:06.075Z,23.80
2018-08-07T05:19:10.236Z,23.90
2018-08-07T05:24:14.504Z,23.90
2018-08-07T05:29:18.765Z,24.10
2018-08-07T05:34:22.910Z,24.20
2018-08-07T05:39:27.872Z,24.20
2018-08-07T05:44:32.868Z,24.20
2018-08-07T05:49:40.328Z,24.50
2018-08-07T05:54:44.509Z,24.60
2018-08-07T05:59:48.618Z,24.70
2018-08-07T06:04:53.625Z,25.10
2018-08-07T06:09:58.070Z,25.20
2018-08-07T06:15:02.199Z,25.50
2018-08-07T06:20:06.500Z,26.20
2018-08-07T06:25:12.941Z,26.80
2018-08-07T06:30:18.775Z,27.50
2018-08-07T06:35:22.988Z,28.20
2018-08-07T06:40:27.086Z,27.90
2018-08-07T06:45:31.536Z,27.50
2018-08-07T06:50:35.589Z,28.10
2018-08-07T06:55:39.714Z,28.00
2018-08-07T07:00:43.927Z,29.20
2018-08-07T07:05:48.269Z,30.00
2018-08-07T07:10:52.351Z,31.20
2018-08-07T07:15:56.485Z,32.20
2018-08-07T07:21:01.417Z,32.50
2018-08-07T07:26:05.671Z,32.30
2018-08-07T07:31:09.845Z,32.80
2018-08-07T07:36:23.436Z,32.90
2018-08-07T07:41:27.798Z,32.60
2018-08-07T07:46:32.029Z,32.00
2018-08-07T07:51:36.128Z,32.70
2018-08-07T08:01:43.931Z,33.20
2018-08-07T08:06:48.028Z,33.00
2018-08-07T08:11:52.371Z,34.70
2018-08-07T08:16:56.490Z,34.80
2018-08-07T08:22:00.617Z,34.20
2018-08-07T08:37:12.188Z,35.10
2018-08-07T08:42:16.404Z,36.50
2018-08-07T08:47:20.528Z,37.00
2018-08-07T08:52:24.697Z,38.00
2018-08-07T08:57:29.001Z,37.40
2018-08-07T09:02:33.095Z,38.80
2018-08-07T09:07:37.747Z,39.50
2018-08-07T09:12:42.110Z,38.90
2018-08-07T09:17:46.294Z,40.10
2018-08-07T09:22:50.587Z,40.20
2018-08-07T09:27:55.190Z,40.90
2018-08-07T09:32:59.924Z,40.70
2018-08-07T09:38:04.131Z,40.90
2018-08-07T09:43:08.316Z,41.60
2018-08-07T09:48:13.057Z,43.40
2018-08-07T09:53:17.308Z,41.90
2018-08-07T09:58:21.475Z,42.80
2018-08-07T10:03:25.609Z,43.60
2018-08-07T10:08:29.760Z,42.50
2018-08-07T10:13:34.878Z,40.90
2018-08-07T10:18:43.812Z,44.00
2018-08-07T10:23:48.279Z,43.50
2018-08-07T10:28:52.641Z,43.20
2018-08-07T10:33:56.922Z,42.40
2018-08-07T10:39:01.060Z,43.00
2018-08-07T10:44:05.297Z,43.80
2018-08-07T10:49:09.418Z,44.30
2018-08-07T10:54:13.577Z,41.30
2018-08-07T10:59:18.736Z,42.10
2018-08-07T11:04:22.902Z,42.90
2018-08-07T11:09:28.161Z,43.80
2018-08-07T11:14:33.194Z,44.10
2018-08-07T11:19:38.148Z,42.40
2018-08-07T11:24:43.280Z,44.50
2018-08-07T11:29:47.458Z,42.00
2018-08-07T11:34:51.652Z,44.20
2018-08-07T11:39:55.942Z,45.10
2018-08-07T11:45:00.126Z,46.40
2018-08-07T11:50:07.500Z,46.20
2018-08-07T11:55:13.716Z,45.00
2018-08-07T12:00:22.305Z,44.90
2018-08-07T12:05:26.689Z,43.90
2018-08-07T12:10:30.889Z,43.20
2018-08-07T12:15:35.302Z,44.70
2018-08-07T12:20:39.553Z,44.70
2018-08-07T12:25:43.678Z,45.90
2018-08-07T12:30:47.901Z,41.00
2018-08-07T12:35:52.054Z,41.80
2018-08-07T12:40:56.675Z,41.60
2018-08-07T12:46:01.222Z,42.20
2018-08-07T12:51:06.234Z,42.10
2018-08-07T12:56:10.308Z,44.30
2018-08-07T13:01:14.421Z,45.50
2018-08-07T13:06:19.287Z,46.20
2018-08-07T13:11:23.590Z,45.50
2018-08-07T13:16:28.839Z,45.20
2018-08-07T13:21:33.637Z,47.00
2018-08-07T13:26:37.848Z,46.00
2018-08-07T13:31:42.158Z,40.90
2018-08-07T13:36:47.131Z,42.20
2018-08-07T13:41:51.514Z,44.40
2018-08-07T13:46:56.758Z,42.10
2018-08-07T13:52:00.973Z,42.40
2018-08-07T13:57:05.193Z,44.70
2018-08-07T14:02:09.543Z,46.00
2018-08-07T14:07:19.734Z,42.70
2018-08-07T14:12:24.753Z,43.00
2018-08-07T14:17:28.947Z,43.40
2018-08-07T14:22:33.298Z,44.50
2018-08-07T14:27:37.469Z,44.60
2018-08-07T14:32:41.695Z,42.00
2018-08-07T14:37:47.240Z,41.70
2018-08-07T14:42:52.072Z,41.20
2018-08-07T14:47:58.225Z,42.50
2018-08-07T14:53:06.704Z,41.10
2018-08-07T14:58:10.989Z,42.70
2018-08-07T15:03:15.155Z,43.40
2018-08-07T15:08:19.304Z,42.50
2018-08-07T15:13:24.975Z,42.20
2018-08-07T15:18:29.069Z,41.80
2018-08-07T15:23:33.312Z,41.00
2018-08-07T15:28:37.463Z,40.30
2018-08-07T15:33:41.758Z,40.80
2018-08-07T15:38:45.965Z,41.40
2018-08-07T15:48:54.113Z,38.90
2018-08-07T15:53:58.324Z,39.50
2018-08-07T15:59:15.849Z,40.10
2018-08-07T16:04:21.867Z,40.20
2018-08-07T16:09:26.149Z,39.90
2018-08-07T16:20:00.885Z,38.60
2018-08-07T16:25:05.633Z,39.20
2018-08-07T16:30:14.845Z,40.00
2018-08-07T16:35:19.193Z,40.00
2018-08-07T16:40:24.664Z,39.60
2018-08-07T16:45:29.433Z,39.50
2018-08-07T16:50:33.644Z,38.60
2018-08-07T16:55:37.759Z,38.30
2018-08-07T17:00:41.909Z,37.90
2018-08-07T17:05:46.025Z,37.60
2018-08-07T17:10:50.313Z,37.60
2018-08-07T17:15:54.341Z,37.20
2018-08-07T17:20:58.729Z,37.10
2018-08-07T17:26:02.882Z,36.70
2018-08-07T17:31:08.905Z,36.50
2018-08-07T17:36:14.604Z,36.60
2018-08-07T17:41:18.745Z,36.30
2018-08-07T17:46:22.912Z,35.80
2018-08-07T17:51:27.329Z,35.60
2018-08-07T17:56:31.489Z,35.50
2018-08-07T18:01:35.680Z,35.40
2018-08-07T18:06:39.840Z,35.30
2018-08-07T18:11:44.020Z,35.30
2018-08-07T18:16:48.312Z,35.10
2018-08-07T18:21:53.916Z,35.00
2018-08-07T18:26:58.329Z,34.70
2018-08-07T18:32:02.775Z,34.60
2018-08-07T18:37:07.083Z,34.70
2018-08-07T18:42:11.553Z,34.60
2018-08-07T18:47:16.533Z,34.40
2018-08-07T18:52:21.165Z,34.30
2018-08-07T18:57:26.427Z,34.00
2018-08-07T19:02:30.654Z,33.90
2018-08-07T19:07:34.793Z,33.70
2018-08-07T19:22:48.081Z,33.20
2018-08-07T19:27:52.336Z,32.60
2018-08-07T19:32:56.560Z,32.30
2018-08-07T19:38:00.840Z,31.70
2018-08-07T19:43:06.089Z,31.20
2018-08-07T19:48:10.413Z,30.80
2018-08-07T19:53:36.349Z,30.50
2018-08-07T19:58:40.499Z,30.20
2018-08-07T20:03:44.667Z,30.30
2018-08-07T20:08:48.969Z,30.30
2018-08-07T20:18:57.112Z,29.30
2018-08-07T20:24:01.310Z,29.50
2018-08-07T20:29:05.465Z,29.80
2018-08-07T20:34:10.278Z,30.20
2018-08-07T20:39:14.819Z,29.70
2018-08-07T20:44:18.949Z,29.20
2018-08-07T20:49:23.613Z,28.80
2018-08-07T20:54:27.846Z,29.20
2018-08-07T20:59:31.965Z,29.80
2018-08-07T21:04:36.096Z,29.70
2018-08-07T21:09:40.224Z,29.90
2018-08-07T21:14:44.471Z,30.30
2018-08-07T21:19:48.564Z,29.70
2018-08-07T21:24:52.806Z,29.90
2018-08-07T21:29:56.911Z,29.40
2018-08-07T21:35:01.034Z,29.00
2018-08-07T21:40:05.240Z,29.00
2018-08-07T21:45:09.296Z,29.30
2018-08-07T21:50:15.062Z,29.70
2018-08-07T21:55:19.805Z,29.70
2018-08-07T22:00:43.436Z,29.10
2018-08-07T22:05:48.423Z,28.90
2018-08-07T22:15:56.321Z,29.00
2018-08-07T22:21:00.567Z,29.00
2018-08-07T22:26:04.761Z,29.20
2018-08-07T22:31:08.964Z,29.20
2018-08-07T22:36:13.074Z,29.20
2018-08-07T22:41:17.540Z,29.20
2018-08-07T22:46:21.830Z,29.20
2018-08-07T22:51:27.114Z,29.20
2018-08-07T23:01:35.459Z,29.10
2018-08-07T23:06:39.620Z,29.00
2018-08-07T23:11:43.756Z,28.70
2018-08-07T23:16:48.030Z,28.70
2018-08-07T23:26:55.889Z,28.60
2018-08-07T23:31:59.984Z,28.40
2018-08-07T23:42:07.980Z,28.10
2018-08-07T23:47:12.065Z,28.10
2018-08-07T23:52:16.167Z,27.70
2018-08-07T23:57:20.349Z,27.60
